createdAt,value
2022-07-26T00:00:12.946Z,1.77
2022-07-26T00:02:47.238Z,1.60
2022-07-26T00:05:18.788Z,1.60
2022-07-26T00:07:45.957Z,1.83
2022-07-26T00:10:13.497Z,1.23
2022-07-26T00:12:40.486Z,1.77
2022-07-26T00:15:10.231Z,1.37
2022-07-26T00:17:37.079Z,1.57
2022-07-26T00:20:04.844Z,1.47
2022-07-26T00:22:34.546Z,1.70
2022-07-26T00:25:04.732Z,1.37
2022-07-26T00:27:32.797Z,1.90
2022-07-26T00:29:59.777Z,1.40
2022-07-26T00:32:26.528Z,2.00
2022-07-26T00:34:53.466Z,1.47
2022-07-26T00:37:21.009Z,1.40
2022-07-26T00:39:48.574Z,1.50
2022-07-26T00:42:15.538Z,2.37
2022-07-26T00:44:45.166Z,1.43
2022-07-26T00:47:12.286Z,1.50
2022-07-26T00:49:39.006Z,1.40
2022-07-26T00:52:06.938Z,1.60
2022-07-26T00:54:34.108Z,1.40
2022-07-26T00:57:01.059Z,1.80
2022-07-26T00:59:28.163Z,1.17
2022-07-26T01:01:55.242Z,1.67
2022-07-26T01:04:22.294Z,1.57
2022-07-26T01:06:49.770Z,1.80
2022-07-26T01:09:17.028Z,1.57
2022-07-26T01:11:43.736Z,1.73
2022-07-26T01:14:10.931Z,1.40
2022-07-26T01:16:38.058Z,1.50
2022-07-26T01:19:04.949Z,1.27
2022-07-26T01:21:33.280Z,1.97
2022-07-26T01:24:00.029Z,1.30
2022-07-26T01:26:26.779Z,1.60
2022-07-26T01:28:53.659Z,1.60
2022-07-26T01:31:20.662Z,1.57
2022-07-26T01:33:47.933Z,1.80
2022-07-26T01:36:14.803Z,1.50
2022-07-26T01:38:42.221Z,1.73
2022-07-26T01:41:09.623Z,1.63
2022-07-26T01:43:37.532Z,1.70
2022-07-26T01:46:06.384Z,1.97
2022-07-26T01:48:33.694Z,1.80
2022-07-26T01:51:01.092Z,1.53
2022-07-26T01:53:27.814Z,1.60
2022-07-26T01:55:55.015Z,1.30
2022-07-26T01:58:21.945Z,1.50
2022-07-26T02:00:49.395Z,1.23
2022-07-26T02:03:16.246Z,1.60
2022-07-26T02:05:43.133Z,1.43
2022-07-26T02:08:11.152Z,1.77
2022-07-26T02:10:57.010Z,1.50
2022-07-26T02:13:23.833Z,1.67
2022-07-26T02:15:50.635Z,1.30
2022-07-26T02:18:17.681Z,1.83
2022-07-26T02:20:44.532Z,1.00
2022-07-26T02:23:11.533Z,1.40
2022-07-26T02:25:38.237Z,1.10
2022-07-26T02:28:05.255Z,1.17
2022-07-26T02:30:31.925Z,1.00
2022-07-26T02:32:58.667Z,1.30
2022-07-26T02:35:25.397Z,1.17
2022-07-26T02:37:52.088Z,1.37
2022-07-26T02:40:19.640Z,1.47
2022-07-26T02:42:46.505Z,1.20
2022-07-26T02:45:13.263Z,1.00
2022-07-26T02:47:53.014Z,1.40
2022-07-26T02:50:21.100Z,0.90
2022-07-26T02:52:48.557Z,1.83
2022-07-26T02:55:20.634Z,1.10
2022-07-26T02:57:48.312Z,1.27
2022-07-26T03:00:17.991Z,1.10
2022-07-26T03:02:44.882Z,1.10
2022-07-26T03:05:11.654Z,1.00
2022-07-26T03:07:38.428Z,1.30
2022-07-26T03:10:05.672Z,1.00
2022-07-26T03:12:32.358Z,0.80
2022-07-26T03:14:59.190Z,1.10
2022-07-26T03:17:26.033Z,1.07
2022-07-26T03:19:52.806Z,0.90
2022-07-26T03:22:19.517Z,0.93
2022-07-26T03:24:46.187Z,0.80
2022-07-26T03:27:12.947Z,0.90
2022-07-26T03:29:39.674Z,0.90
2022-07-26T03:32:06.803Z,1.20
2022-07-26T03:34:33.664Z,1.40
2022-07-26T03:37:00.402Z,1.10
2022-07-26T03:39:27.143Z,1.57
2022-07-26T03:41:53.913Z,1.10
2022-07-26T03:44:20.625Z,1.07
2022-07-26T03:46:47.316Z,1.00
2022-07-26T03:49:16.979Z,1.10
2022-07-26T03:51:44.617Z,1.63
2022-07-26T03:54:11.778Z,1.00
2022-07-26T03:56:40.306Z,1.30
2022-07-26T03:59:09.389Z,0.87
2022-07-26T04:01:41.640Z,1.00
2022-07-26T04:04:10.577Z,0.80
2022-07-26T04:06:39.191Z,1.20
2022-07-26T04:09:07.236Z,0.80
2022-07-26T04:11:34.774Z,1.30
2022-07-26T04:14:02.175Z,1.03
2022-07-26T04:16:29.239Z,1.50
2022-07-26T04:18:55.988Z,1.20
2022-07-26T04:21:22.802Z,1.57
2022-07-26T04:23:51.512Z,0.90
2022-07-26T04:26:20.271Z,1.90
2022-07-26T04:28:47.434Z,1.40
2022-07-26T04:31:14.301Z,1.20
2022-07-26T04:33:41.099Z,1.30
2022-07-26T04:36:08.320Z,1.30
2022-07-26T04:38:35.063Z,1.20
2022-07-26T04:41:01.803Z,1.50
2022-07-26T04:43:28.555Z,1.10
2022-07-26T04:45:57.428Z,1.40
2022-07-26T04:48:24.539Z,1.30
2022-07-26T04:50:51.283Z,2.03
2022-07-26T04:53:17.993Z,1.80
2022-07-26T04:55:45.017Z,1.30
2022-07-26T04:58:11.767Z,0.90
2022-07-26T05:01:02.769Z,1.13
2022-07-26T05:03:25.410Z,1.23
2022-07-26T05:05:52.761Z,0.90
2022-07-26T05:08:19.690Z,1.20
2022-07-26T05:10:47.784Z,1.13
2022-07-26T05:13:16.207Z,0.93
2022-07-26T05:15:49.917Z,1.00
2022-07-26T05:18:20.864Z,1.00
2022-07-26T05:20:51.513Z,1.10
2022-07-26T05:23:19.902Z,0.90
2022-07-26T05:25:47.380Z,0.97
2022-07-26T05:28:14.227Z,1.20
2022-07-26T05:30:40.985Z,1.10
2022-07-26T05:33:07.956Z,1.40
2022-07-26T05:35:34.752Z,1.60
2022-07-26T05:38:01.574Z,1.00
2022-07-26T05:40:28.372Z,1.00
2022-07-26T05:42:54.996Z,1.30
2022-07-26T05:45:21.814Z,1.00
2022-07-26T05:47:52.433Z,1.17
2022-07-26T05:50:19.991Z,0.90
2022-07-26T05:52:46.775Z,1.03
2022-07-26T05:55:13.977Z,1.33
2022-07-26T05:57:41.982Z,0.87
2022-07-26T06:00:11.435Z,1.10
2022-07-26T06:02:38.214Z,1.33
2022-07-26T06:05:05.219Z,1.20
2022-07-26T06:07:32.173Z,1.10
2022-07-26T06:09:59.982Z,0.90
2022-07-26T06:12:26.691Z,1.00
2022-07-26T06:14:53.406Z,1.00
2022-07-26T06:17:20.230Z,1.30
2022-07-26T06:19:47.899Z,0.93
2022-07-26T06:22:15.166Z,0.83
2022-07-26T06:24:41.921Z,1.10
2022-07-26T06:27:08.670Z,1.30
2022-07-26T06:29:35.451Z,1.10
2022-07-26T06:32:02.322Z,0.90
2022-07-26T06:34:29.707Z,1.07
2022-07-26T06:36:56.511Z,1.53
2022-07-26T06:39:23.423Z,1.20
2022-07-26T06:41:50.433Z,1.23
2022-07-26T06:44:17.251Z,0.90
2022-07-26T06:46:43.972Z,1.00
2022-07-26T06:49:10.760Z,1.50
2022-07-26T06:51:38.062Z,1.20
2022-07-26T06:54:05.756Z,1.43
2022-07-26T06:56:32.965Z,0.80
2022-07-26T06:58:59.760Z,0.90
2022-07-26T07:01:57.745Z,1.00
2022-07-26T07:04:13.173Z,0.97
2022-07-26T07:06:40.376Z,0.77
2022-07-26T07:09:08.912Z,1.10
2022-07-26T07:11:36.380Z,1.03
2022-07-26T07:14:03.477Z,1.13
2022-07-26T07:16:30.488Z,0.80
2022-07-26T07:18:57.428Z,1.03
2022-07-26T07:21:24.387Z,0.90
2022-07-26T07:23:51.174Z,0.87
2022-07-26T07:26:20.120Z,1.17
2022-07-26T07:28:46.978Z,0.90
2022-07-26T07:31:15.465Z,0.97
2022-07-26T07:33:52.600Z,0.90
2022-07-26T07:36:19.970Z,0.80
2022-07-26T07:38:47.073Z,0.63
2022-07-26T07:41:13.878Z,0.73
2022-07-26T07:43:40.843Z,1.00
2022-07-26T07:46:07.609Z,1.00
2022-07-26T07:48:34.380Z,0.73
2022-07-26T07:51:01.317Z,0.90
2022-07-26T07:53:28.568Z,0.97
2022-07-26T07:55:57.679Z,1.03
2022-07-26T07:58:24.511Z,1.20
2022-07-26T08:00:55.349Z,1.13
2022-07-26T08:03:22.612Z,1.53
2022-07-26T08:05:50.803Z,0.73
2022-07-26T08:08:22.169Z,1.10
2022-07-26T08:10:52.181Z,0.80
2022-07-26T08:13:21.537Z,1.33
2022-07-26T08:15:52.792Z,1.10
2022-07-26T08:18:22.572Z,0.60
2022-07-26T08:20:51.420Z,0.67
2022-07-26T08:23:19.052Z,0.70
2022-07-26T08:25:56.275Z,0.93
2022-07-26T08:28:46.229Z,1.10
2022-07-26T08:31:11.909Z,0.90
2022-07-26T08:33:40.869Z,0.90
2022-07-26T08:36:12.384Z,0.80
2022-07-26T08:38:39.412Z,0.60
2022-07-26T08:41:06.359Z,0.80
2022-07-26T08:43:33.123Z,0.90
2022-07-26T08:46:24.710Z,0.60
2022-07-26T08:48:53.398Z,1.17
2022-07-26T08:51:22.579Z,0.80
2022-07-26T08:53:50.597Z,0.67
2022-07-26T08:56:17.341Z,0.70
2022-07-26T08:58:45.331Z,0.90
2022-07-26T09:01:13.137Z,0.90
2022-07-26T09:03:41.677Z,0.80
2022-07-26T09:06:13.475Z,0.70
2022-07-26T09:08:40.661Z,0.70
2022-07-26T09:11:28.239Z,0.70
2022-07-26T09:13:56.827Z,0.80
2022-07-26T09:16:24.121Z,0.70
2022-07-26T09:18:51.068Z,0.60
2022-07-26T09:21:32.435Z,0.90
2022-07-26T09:23:59.842Z,0.70
2022-07-26T09:26:28.014Z,0.80
2022-07-26T09:29:10.524Z,0.83
2022-07-26T09:31:39.222Z,0.67
2022-07-26T09:34:07.399Z,0.40
2022-07-26T09:36:51.563Z,0.77
2022-07-26T09:39:33.991Z,0.40
2022-07-26T09:42:27.591Z,0.67
2022-07-26T09:44:58.887Z,0.80
2022-07-26T09:47:39.691Z,0.83
2022-07-26T09:50:17.317Z,0.70
2022-07-26T09:53:07.272Z,0.70
2022-07-26T09:55:55.283Z,0.57
2022-07-26T09:58:23.164Z,0.60
2022-07-26T10:00:50.161Z,0.80
2022-07-26T10:03:17.195Z,0.80
2022-07-26T10:05:43.976Z,0.77
2022-07-26T10:08:12.122Z,0.70
2022-07-26T10:10:45.011Z,0.50
2022-07-26T10:13:11.996Z,0.80
2022-07-26T10:15:46.899Z,0.70
2022-07-26T10:18:35.974Z,0.77
2022-07-26T10:21:23.668Z,0.50
2022-07-26T10:23:51.754Z,0.40
2022-07-26T10:26:36.373Z,0.50
2022-07-26T10:29:20.589Z,0.80
2022-07-26T10:32:10.053Z,0.70
2022-07-26T10:34:38.837Z,0.80
2022-07-26T10:37:22.618Z,0.70
2022-07-26T10:39:49.855Z,0.60
2022-07-26T10:42:16.604Z,0.63
2022-07-26T10:44:45.191Z,0.40
2022-07-26T10:47:15.787Z,0.60
2022-07-26T10:49:53.647Z,0.67
2022-07-26T10:52:25.342Z,0.70
2022-07-26T10:55:00.995Z,0.67
2022-07-26T10:57:47.617Z,0.60
2022-07-26T11:00:16.069Z,0.63
2022-07-26T11:02:44.152Z,0.93
2022-07-26T11:05:17.817Z,1.03
2022-07-26T11:07:50.619Z,0.60
2022-07-26T11:10:33.247Z,0.67
2022-07-26T11:13:02.733Z,0.73
2022-07-26T11:15:30.097Z,0.50
2022-07-26T11:18:06.915Z,0.80
2022-07-26T11:20:33.667Z,0.97
2022-07-26T11:23:00.546Z,0.73
2022-07-26T11:25:27.548Z,1.60
2022-07-26T11:28:07.202Z,1.33
2022-07-26T11:30:35.029Z,0.77
2022-07-26T11:33:01.831Z,1.00
2022-07-26T11:35:29.885Z,1.90
2022-07-26T11:38:11.245Z,0.90
2022-07-26T11:40:46.700Z,0.67
2022-07-26T11:43:13.689Z,1.00
2022-07-26T11:45:40.742Z,1.00
2022-07-26T11:48:07.693Z,1.10
2022-07-26T11:50:34.521Z,1.20
2022-07-26T11:53:01.282Z,1.00
2022-07-26T11:55:31.347Z,1.20
2022-07-26T11:58:05.816Z,1.00
2022-07-26T12:00:32.828Z,0.97
2022-07-26T12:02:59.612Z,0.90
2022-07-26T12:05:27.732Z,1.30
2022-07-26T12:08:00.498Z,0.90
2022-07-26T12:10:28.732Z,0.73
2022-07-26T12:13:11.989Z,0.80
2022-07-26T12:15:50.310Z,0.87
2022-07-26T12:18:30.712Z,0.67
2022-07-26T12:21:06.301Z,0.60
2022-07-26T12:24:00.194Z,0.97
2022-07-26T12:26:30.641Z,0.70
2022-07-26T12:28:59.691Z,0.80
2022-07-26T12:31:34.317Z,0.60
2022-07-26T12:34:01.446Z,0.60
2022-07-26T12:36:29.800Z,0.80
2022-07-26T12:38:58.705Z,0.63
2022-07-26T12:41:36.932Z,0.93
2022-07-26T12:44:06.615Z,0.70
2022-07-26T12:46:35.023Z,0.90
2022-07-26T12:49:03.103Z,0.77
2022-07-26T12:51:30.070Z,1.00
2022-07-26T12:53:56.791Z,0.70
2022-07-26T12:56:23.562Z,1.00
2022-07-26T12:58:50.501Z,0.90
2022-07-26T13:01:17.307Z,0.73
2022-07-26T13:03:44.362Z,0.60
2022-07-26T13:06:11.357Z,1.37
2022-07-26T13:08:38.347Z,0.80
2022-07-26T13:11:05.243Z,1.00
2022-07-26T13:13:31.986Z,0.93
2022-07-26T13:15:58.818Z,0.80
2022-07-26T13:18:25.556Z,0.67
2022-07-26T13:20:52.330Z,1.00
2022-07-26T13:23:21.577Z,0.80
2022-07-26T13:25:49.705Z,0.70
2022-07-26T13:28:17.414Z,0.90
2022-07-26T13:30:45.071Z,0.90
2022-07-26T13:33:12.260Z,0.97
2022-07-26T13:35:41.307Z,1.40
2022-07-26T13:38:09.034Z,0.90
2022-07-26T13:40:36.090Z,0.93
2022-07-26T13:43:03.349Z,1.00
2022-07-26T13:45:30.102Z,0.93
2022-07-26T13:47:58.912Z,1.10
2022-07-26T13:50:27.855Z,0.90
2022-07-26T13:52:56.191Z,1.40
2022-07-26T13:55:23.125Z,1.50
2022-07-26T13:57:56.883Z,1.00
2022-07-26T14:00:26.712Z,0.90
2022-07-26T14:02:55.070Z,1.13
2022-07-26T14:05:22.288Z,0.80
2022-07-26T14:07:49.397Z,1.07
2022-07-26T14:10:16.265Z,0.70
2022-07-26T14:12:43.059Z,0.93
2022-07-26T14:15:14.142Z,1.10
2022-07-26T14:17:45.503Z,0.90
2022-07-26T14:20:12.650Z,1.03
2022-07-26T14:22:39.588Z,1.13
2022-07-26T14:25:07.267Z,1.10
2022-07-26T14:27:34.071Z,1.03
2022-07-26T14:30:00.829Z,0.90
2022-07-26T14:32:27.900Z,1.30
2022-07-26T14:34:54.699Z,1.10
2022-07-26T14:37:44.324Z,1.37
2022-07-26T14:40:08.930Z,2.47
2022-07-26T14:42:35.663Z,1.10
2022-07-26T14:45:02.525Z,1.13
2022-07-26T14:47:29.297Z,1.37
2022-07-26T14:49:56.023Z,1.20
2022-07-26T14:52:22.903Z,1.10
2022-07-26T14:54:49.585Z,1.13
2022-07-26T14:57:16.379Z,1.50
2022-07-26T14:59:43.073Z,1.30
2022-07-26T15:02:11.847Z,1.10
2022-07-26T15:04:38.645Z,1.00
2022-07-26T15:07:05.392Z,1.10
2022-07-26T15:09:32.226Z,1.30
2022-07-26T15:11:59.290Z,1.30
2022-07-26T15:14:25.951Z,1.50
2022-07-26T15:16:52.835Z,1.10
2022-07-26T15:19:25.157Z,1.00
2022-07-26T15:21:54.997Z,1.30
2022-07-26T15:24:23.294Z,1.30
2022-07-26T15:26:51.196Z,1.37
2022-07-26T15:29:17.927Z,1.20
2022-07-26T15:31:44.819Z,1.20
2022-07-26T15:34:12.135Z,1.60
2022-07-26T15:36:39.138Z,1.50
2022-07-26T15:39:16.725Z,1.33
2022-07-26T15:41:45.137Z,1.40
2022-07-26T15:44:12.594Z,1.53
2022-07-26T15:46:39.995Z,1.17
2022-07-26T15:49:07.803Z,1.50
2022-07-26T15:51:34.594Z,1.10
2022-07-26T15:54:03.040Z,1.30
2022-07-26T15:56:29.993Z,0.97
2022-07-26T15:58:56.694Z,1.13
2022-07-26T16:01:23.532Z,1.27
2022-07-26T16:03:50.519Z,1.10
2022-07-26T16:06:17.327Z,1.40
2022-07-26T16:09:13.438Z,1.33
2022-07-26T16:11:31.530Z,1.30
2022-07-26T16:14:01.243Z,1.27
2022-07-26T16:16:30.108Z,1.30
2022-07-26T16:18:57.125Z,1.30
2022-07-26T16:21:24.492Z,1.40
2022-07-26T16:23:51.292Z,1.27
2022-07-26T16:26:18.767Z,1.20
2022-07-26T16:28:45.854Z,1.20
2022-07-26T16:31:12.801Z,1.17
2022-07-26T16:33:46.054Z,1.70
2022-07-26T16:36:14.129Z,1.30
2022-07-26T16:38:41.087Z,1.17
2022-07-26T16:41:07.984Z,1.20
2022-07-26T16:43:35.282Z,1.37
2022-07-26T16:46:02.142Z,1.13
2022-07-26T16:48:28.897Z,1.20
2022-07-26T16:50:55.741Z,1.30
2022-07-26T16:53:22.465Z,1.40
2022-07-26T16:55:51.715Z,1.67
2022-07-26T16:58:19.214Z,1.70
2022-07-26T17:00:47.235Z,1.67
2022-07-26T17:03:15.999Z,1.67
2022-07-26T17:05:44.512Z,1.60
2022-07-26T17:08:11.326Z,1.63
2022-07-26T17:10:38.455Z,1.37
2022-07-26T17:13:05.235Z,1.47
2022-07-26T17:15:31.930Z,1.80
2022-07-26T17:17:58.860Z,1.67
2022-07-26T17:20:25.739Z,1.70
2022-07-26T17:22:52.810Z,1.60
2022-07-26T17:25:19.750Z,1.80
2022-07-26T17:27:46.554Z,1.80
2022-07-26T17:30:13.839Z,1.77
2022-07-26T17:32:40.921Z,1.43
2022-07-26T17:35:08.138Z,1.90
2022-07-26T17:37:35.140Z,1.80
2022-07-26T17:40:03.642Z,1.70
2022-07-26T17:42:30.865Z,1.80
2022-07-26T17:44:57.763Z,1.50
2022-07-26T17:47:29.333Z,1.50
2022-07-26T17:50:14.172Z,1.33
2022-07-26T17:52:45.991Z,1.80
2022-07-26T17:55:12.773Z,1.77
2022-07-26T17:57:39.946Z,1.50
2022-07-26T18:00:07.557Z,1.63
2022-07-26T18:02:34.468Z,1.67
2022-07-26T18:05:03.073Z,1.20
2022-07-26T18:07:29.861Z,1.70
2022-07-26T18:09:56.603Z,1.33
2022-07-26T18:12:23.459Z,1.50
2022-07-26T18:14:50.196Z,1.53
2022-07-26T18:17:17.094Z,1.27
2022-07-26T18:19:43.815Z,1.40
2022-07-26T18:22:10.549Z,1.50
2022-07-26T18:24:37.273Z,1.40
2022-07-26T18:27:04.072Z,1.30
2022-07-26T18:29:30.823Z,1.27
2022-07-26T18:32:00.182Z,1.80
2022-07-26T18:34:27.159Z,2.60
2022-07-26T18:36:54.309Z,1.40
2022-07-26T18:39:21.286Z,1.30
2022-07-26T18:41:48.258Z,1.30
2022-07-26T18:44:15.128Z,1.13
2022-07-26T18:46:41.934Z,1.37
2022-07-26T18:49:09.224Z,1.40
2022-07-26T18:51:42.933Z,1.57
2022-07-26T18:54:10.042Z,1.10
2022-07-26T18:56:36.749Z,1.23
2022-07-26T18:59:03.905Z,1.00
2022-07-26T19:01:30.763Z,1.10
2022-07-26T19:03:57.647Z,1.40
2022-07-26T19:06:24.786Z,1.43
2022-07-26T19:08:51.504Z,1.07
2022-07-26T19:11:18.277Z,1.23
2022-07-26T19:13:44.967Z,1.30
2022-07-26T19:16:11.749Z,1.20
2022-07-26T19:18:38.472Z,1.00
2022-07-26T19:21:05.349Z,1.47
2022-07-26T19:23:32.079Z,1.17
2022-07-26T19:25:58.891Z,1.13
2022-07-26T19:28:25.768Z,1.30
2022-07-26T19:30:52.516Z,1.30
2022-07-26T19:33:19.392Z,1.23
2022-07-26T19:35:46.169Z,1.20
2022-07-26T19:38:13.441Z,1.10
2022-07-26T19:40:40.312Z,1.60
2022-07-26T19:43:07.113Z,1.10
2022-07-26T19:45:33.857Z,1.30
2022-07-26T19:48:00.694Z,1.20
2022-07-26T19:50:27.425Z,1.30
2022-07-26T19:52:54.226Z,1.03
2022-07-26T19:55:22.638Z,1.20
2022-07-26T19:57:49.523Z,0.93
2022-07-26T20:00:16.853Z,1.30
2022-07-26T20:02:43.837Z,1.70
2022-07-26T20:05:11.808Z,1.67
2022-07-26T20:07:39.062Z,1.17
2022-07-26T20:10:06.848Z,1.00
2022-07-26T20:12:34.762Z,1.30
2022-07-26T20:15:01.550Z,1.20
2022-07-26T20:17:33.390Z,1.40
2022-07-26T20:20:00.313Z,1.30
2022-07-26T20:22:27.057Z,1.43
2022-07-26T20:24:56.163Z,1.20
2022-07-26T20:27:24.134Z,2.37
2022-07-26T20:29:51.339Z,2.10
2022-07-26T20:32:18.581Z,1.57
2022-07-26T20:34:45.400Z,1.70
2022-07-26T20:37:12.181Z,1.47
2022-07-26T20:39:38.924Z,1.70
2022-07-26T20:42:06.674Z,1.50
2022-07-26T20:44:36.013Z,1.57
2022-07-26T20:47:06.260Z,1.67
2022-07-26T20:49:33.226Z,1.43
2022-07-26T20:52:00.132Z,1.43
2022-07-26T20:54:26.909Z,1.60
2022-07-26T20:56:53.588Z,1.60
2022-07-26T20:59:20.337Z,2.23
2022-07-26T21:01:47.136Z,1.40
2022-07-26T21:04:13.964Z,1.50
2022-07-26T21:06:40.663Z,1.60
2022-07-26T21:09:08.861Z,1.07
2022-07-26T21:11:36.292Z,1.10
2022-07-26T21:14:03.212Z,1.10
2022-07-26T21:16:30.116Z,1.00
2022-07-26T21:18:56.924Z,1.20
2022-07-26T21:21:23.768Z,1.20
2022-07-26T21:23:50.789Z,1.17
2022-07-26T21:26:17.603Z,1.00
2022-07-26T21:28:44.297Z,1.10
2022-07-26T21:31:11.041Z,1.00
2022-07-26T21:33:37.716Z,0.70
2022-07-26T21:36:04.685Z,0.97
2022-07-26T21:38:32.691Z,0.70
2022-07-26T21:40:59.635Z,0.83
2022-07-26T21:43:26.392Z,1.30
2022-07-26T21:45:53.233Z,1.00
2022-07-26T21:48:20.246Z,0.90
2022-07-26T21:50:46.948Z,0.77
2022-07-26T21:53:13.727Z,0.90
2022-07-26T21:55:41.074Z,0.77
2022-07-26T21:58:07.909Z,0.90
2022-07-26T22:00:36.590Z,0.80
2022-07-26T22:03:03.759Z,0.50
2022-07-26T22:05:39.515Z,0.90
2022-07-26T22:08:09.044Z,0.70
2022-07-26T22:10:44.146Z,0.80
2022-07-26T22:13:12.144Z,1.00
2022-07-26T22:15:38.824Z,0.70
2022-07-26T22:18:06.022Z,0.60
2022-07-26T22:20:34.270Z,0.70
2022-07-26T22:23:03.160Z,0.87
2022-07-26T22:25:31.230Z,0.80
2022-07-26T22:27:58.230Z,0.73
2022-07-26T22:30:25.409Z,0.80
2022-07-26T22:32:52.070Z,0.73
2022-07-26T22:35:18.960Z,0.87
2022-07-26T22:37:45.669Z,1.20
2022-07-26T22:40:12.946Z,0.90
2022-07-26T22:42:39.909Z,0.90
2022-07-26T22:45:09.935Z,0.90
2022-07-26T22:47:36.979Z,1.00
2022-07-26T22:50:06.565Z,0.90
2022-07-26T22:52:33.439Z,1.00
2022-07-26T22:55:00.153Z,0.80
2022-07-26T22:57:27.143Z,0.80
2022-07-26T22:59:57.769Z,1.10
2022-07-26T23:02:24.500Z,0.70
2022-07-26T23:04:51.233Z,0.80
2022-07-26T23:07:17.946Z,1.10
2022-07-26T23:09:45.630Z,1.00
2022-07-26T23:12:12.385Z,0.93
2022-07-26T23:14:39.140Z,0.90
2022-07-26T23:17:05.826Z,0.90
2022-07-26T23:19:32.484Z,0.80
2022-07-26T23:21:59.319Z,0.90
2022-07-26T23:24:26.007Z,0.80
2022-07-26T23:26:52.804Z,1.00
2022-07-26T23:29:19.519Z,0.90
2022-07-26T23:31:46.365Z,1.20
2022-07-26T23:34:13.193Z,0.90
2022-07-26T23:36:40.084Z,0.60
2022-07-26T23:39:06.812Z,0.90
2022-07-26T23:41:33.686Z,0.60
2022-07-26T23:44:00.348Z,0.70
2022-07-26T23:46:27.577Z,0.60
2022-07-26T23:48:55.389Z,0.60
2022-07-26T23:51:25.329Z,0.60
2022-07-26T23:53:52.914Z,0.60
2022-07-26T23:56:19.687Z,0.60
2022-07-26T23:58:46.407Z,0.63
